createdAt,value
2019-02-09T00:01:47.050Z,51.51
2019-02-09T00:06:53.185Z,49.63
2019-02-09T00:11:58.758Z,49.14
2019-02-09T00:17:05.539Z,50.38
2019-02-09T00:22:11.298Z,50.38
2019-02-09T00:27:16.897Z,50.19
2019-02-09T00:32:22.473Z,50.19
2019-02-09T00:37:29.118Z,49.54
2019-02-09T00:42:35.932Z,49.78
2019-02-09T00:47:41.509Z,49.80
2019-02-09T00:52:47.012Z,50.28
2019-02-09T00:57:53.195Z,50.75
2019-02-09T01:02:59.161Z,50.92
2019-02-09T01:08:05.560Z,48.91
2019-02-09T01:13:11.079Z,49.33
2019-02-09T01:18:16.661Z,48.77
2019-02-09T01:23:23.787Z,51.00
2019-02-09T01:28:30.596Z,51.00
2019-02-09T01:33:38.493Z,52.83
2019-02-09T01:38:44.154Z,53.44
2019-02-09T01:43:50.139Z,53.20
2019-02-09T01:48:56.222Z,55.32
2019-02-09T01:54:01.731Z,55.20
2019-02-09T01:59:07.377Z,55.20
2019-02-09T02:04:12.950Z,54.61
2019-02-09T02:09:18.786Z,51.81
2019-02-09T02:14:24.323Z,50.89
2019-02-09T02:19:30.030Z,49.39
2019-02-09T02:24:35.585Z,49.48
2019-02-09T02:29:41.679Z,49.51
2019-02-09T02:34:47.190Z,48.88
2019-02-09T02:39:53.122Z,50.37
2019-02-09T02:45:00.379Z,49.91
2019-02-09T02:50:08.165Z,51.63
2019-02-09T02:55:21.388Z,49.53
2019-02-09T03:00:32.124Z,55.16
2019-02-09T03:05:36.469Z,52.67
2019-02-09T03:10:44.131Z,50.77
2019-02-09T03:15:50.140Z,50.23
2019-02-09T03:20:58.289Z,54.52
2019-02-09T03:26:03.955Z,54.52
2019-02-09T03:31:09.521Z,55.22
2019-02-09T03:36:16.024Z,56.67
2019-02-09T03:41:22.155Z,56.73
2019-02-09T03:46:27.798Z,57.59
2019-02-09T03:51:33.435Z,56.04
2019-02-09T03:56:39.027Z,56.16
2019-02-09T04:01:44.596Z,56.55
2019-02-09T04:06:51.330Z,55.91
2019-02-09T04:11:58.311Z,51.70
2019-02-09T04:17:04.986Z,52.32
2019-02-09T04:22:10.523Z,48.51
2019-02-09T04:27:16.061Z,48.51
2019-02-09T04:32:21.616Z,48.93
2019-02-09T04:37:29.999Z,49.20
2019-02-09T04:42:37.610Z,48.80
2019-02-09T04:47:43.820Z,49.68
2019-02-09T04:52:49.647Z,49.73
2019-02-09T04:57:55.254Z,50.22
2019-02-09T05:03:01.380Z,50.04
2019-02-09T05:08:07.089Z,50.04
2019-02-09T05:13:14.326Z,50.68
2019-02-09T05:18:20.154Z,51.07
2019-02-09T05:23:25.758Z,51.07
2019-02-09T05:28:31.727Z,51.35
2019-02-09T05:33:37.594Z,52.16
2019-02-09T05:38:43.129Z,52.16
2019-02-09T05:43:49.620Z,53.03
2019-02-09T05:48:55.598Z,53.03
2019-02-09T05:54:04.570Z,53.13
2019-02-09T05:59:12.254Z,53.95
2019-02-09T06:04:17.910Z,54.16
2019-02-09T06:09:23.439Z,55.38
2019-02-09T06:14:29.028Z,56.04
2019-02-09T06:19:34.626Z,56.81
2019-02-09T06:24:40.145Z,56.56
2019-02-09T06:29:45.707Z,56.48
2019-02-09T06:34:51.565Z,55.94
2019-02-09T06:39:57.108Z,56.52
2019-02-09T06:45:03.239Z,56.71
2019-02-09T06:50:11.039Z,57.34
2019-02-09T06:55:17.220Z,57.34
2019-02-09T07:00:22.966Z,57.26
2019-02-09T07:05:28.976Z,56.76
2019-02-09T07:10:44.661Z,56.35
2019-02-09T07:15:50.737Z,56.49
2019-02-09T07:20:56.329Z,56.33
2019-02-09T07:26:02.501Z,56.58
2019-02-09T07:31:08.455Z,56.71
2019-02-09T07:36:14.523Z,56.47
2019-02-09T07:41:20.219Z,56.85
2019-02-09T07:46:26.626Z,56.59
2019-02-09T07:51:35.003Z,57.04
2019-02-09T07:56:44.304Z,56.92
2019-02-09T08:01:50.441Z,56.92
2019-02-09T08:06:59.350Z,56.90
2019-02-09T08:12:08.423Z,57.52
2019-02-09T08:17:22.105Z,57.69
2019-02-09T08:22:29.319Z,57.57
2019-02-09T08:27:37.337Z,56.53
2019-02-09T08:32:45.319Z,55.98
2019-02-09T08:37:51.225Z,55.61
2019-02-09T08:42:58.514Z,55.55
2019-02-09T08:48:05.554Z,54.38
2019-02-09T08:53:11.504Z,53.66
2019-02-09T08:58:20.107Z,53.77
2019-02-09T09:03:33.930Z,53.57
2019-02-09T09:08:34.884Z,53.37
2019-02-09T09:13:40.705Z,54.20
2019-02-09T09:18:46.622Z,54.34
2019-02-09T09:23:52.410Z,52.62
2019-02-09T09:28:58.277Z,52.76
2019-02-09T09:34:05.527Z,52.89
2019-02-09T09:39:12.392Z,51.48
2019-02-09T09:44:18.279Z,52.41
2019-02-09T09:49:29.583Z,50.47
2019-02-09T09:54:35.232Z,50.51
2019-02-09T09:59:45.476Z,50.14
2019-02-09T10:04:53.665Z,49.81
2019-02-09T10:10:01.432Z,49.20
2019-02-09T10:15:09.874Z,48.11
2019-02-09T10:20:20.728Z,47.35
2019-02-09T10:25:30.338Z,47.56
2019-02-09T10:30:36.181Z,47.39
2019-02-09T10:35:41.986Z,47.34
2019-02-09T10:40:49.326Z,47.63
2019-02-09T10:45:56.133Z,48.94
2019-02-09T10:51:08.305Z,49.24
2019-02-09T10:56:14.141Z,49.45
2019-02-09T11:01:25.130Z,49.30
2019-02-09T11:06:35.361Z,48.70
2019-02-09T11:11:46.036Z,49.42
2019-02-09T11:16:52.902Z,50.20
2019-02-09T11:21:58.734Z,49.88
2019-02-09T11:27:10.642Z,49.91
2019-02-09T11:32:20.331Z,50.37
2019-02-09T11:37:31.277Z,50.30
2019-02-09T11:42:41.087Z,49.81
2019-02-09T11:47:48.406Z,49.16
2019-02-09T11:52:54.679Z,49.29
2019-02-09T11:58:06.063Z,49.09
2019-02-09T12:03:15.844Z,49.28
2019-02-09T12:08:22.850Z,48.66
2019-02-09T12:13:32.737Z,48.48
2019-02-09T12:18:39.538Z,48.23
2019-02-09T12:23:45.361Z,47.18
2019-02-09T12:28:52.930Z,48.21
2019-02-09T12:34:01.464Z,48.33
2019-02-09T12:39:11.593Z,48.80
2019-02-09T12:44:17.426Z,48.90
2019-02-09T12:49:24.723Z,48.30
2019-02-09T12:54:30.497Z,48.12
2019-02-09T12:59:36.413Z,48.40
2019-02-09T13:04:46.539Z,48.98
2019-02-09T13:09:53.533Z,48.90
2019-02-09T13:15:06.482Z,48.77
2019-02-09T13:20:11.179Z,49.09
2019-02-09T13:25:17.383Z,49.09
2019-02-09T13:30:26.087Z,48.93
2019-02-09T13:35:36.301Z,49.29
2019-02-09T13:40:42.589Z,49.85
2019-02-09T13:45:55.453Z,50.49
2019-02-09T13:51:06.722Z,51.33
2019-02-09T13:56:16.228Z,51.00
2019-02-09T14:01:25.798Z,50.98
2019-02-09T14:06:33.321Z,50.22
2019-02-09T14:11:42.970Z,50.10
2019-02-09T14:16:49.750Z,50.43
2019-02-09T14:21:59.308Z,50.54
2019-02-09T14:27:22.221Z,50.95
2019-02-09T14:32:34.519Z,50.63
2019-02-09T14:37:43.031Z,50.85
2019-02-09T14:42:53.772Z,50.24
2019-02-09T14:47:59.534Z,50.42
2019-02-09T14:53:08.211Z,50.12
2019-02-09T14:58:14.452Z,50.69
2019-02-09T15:03:26.939Z,50.75
2019-02-09T15:08:32.488Z,51.33
2019-02-09T15:13:39.952Z,50.65
2019-02-09T15:18:48.312Z,50.72
2019-02-09T15:23:54.507Z,51.27
2019-02-09T15:29:02.867Z,51.78
2019-02-09T15:34:10.373Z,51.62
2019-02-09T15:39:17.734Z,51.50
2019-02-09T15:54:38.531Z,52.11
2019-02-09T15:59:50.038Z,52.37
2019-02-09T16:05:00.393Z,52.64
2019-02-09T16:10:11.004Z,53.17
2019-02-09T16:15:21.354Z,53.65
2019-02-09T16:20:28.081Z,54.08
2019-02-09T16:25:41.976Z,54.32
2019-02-09T16:30:50.235Z,55.06
2019-02-09T16:35:56.367Z,55.88
2019-02-09T16:41:04.607Z,55.84
2019-02-09T16:46:16.423Z,55.93
2019-02-09T16:51:22.687Z,56.40
2019-02-09T16:56:28.867Z,56.43
2019-02-09T17:01:35.709Z,56.39
2019-02-09T17:06:41.740Z,56.36
2019-02-09T17:11:50.581Z,56.29
2019-02-09T17:16:57.717Z,55.83
2019-02-09T17:22:11.921Z,55.94
2019-02-09T17:27:20.492Z,56.14
2019-02-09T17:32:26.781Z,56.07
2019-02-09T17:37:38.471Z,56.30
2019-02-09T17:42:44.430Z,56.09
2019-02-09T17:47:53.262Z,56.16
2019-02-09T17:53:00.325Z,56.13
2019-02-09T17:58:14.802Z,56.01
2019-02-09T18:03:20.737Z,56.05
2019-02-09T18:08:27.167Z,56.69
2019-02-09T18:13:33.243Z,57.37
2019-02-09T18:18:40.866Z,57.13
2019-02-09T18:23:50.433Z,56.75
2019-02-09T18:28:58.797Z,56.93
2019-02-09T18:34:09.122Z,56.44
2019-02-09T18:39:16.386Z,56.11
2019-02-09T18:44:26.497Z,56.11
2019-02-09T18:49:32.238Z,55.98
2019-02-09T18:54:39.641Z,55.47
2019-02-09T18:59:52.783Z,55.47
2019-02-09T19:05:04.830Z,55.39
2019-02-09T19:10:19.234Z,55.19
2019-02-09T19:15:30.408Z,54.68
2019-02-09T19:20:42.699Z,54.68
2019-02-09T19:25:51.078Z,54.46
2019-02-09T19:31:00.634Z,54.58
2019-02-09T19:36:15.831Z,54.55
2019-02-09T19:41:22.131Z,54.58
2019-02-09T19:46:30.685Z,54.74
2019-02-09T19:51:36.840Z,54.63
2019-02-09T19:56:44.516Z,54.70
2019-02-09T20:01:50.434Z,54.93
2019-02-09T20:07:07.471Z,54.98
2019-02-09T20:12:15.935Z,55.45
2019-02-09T20:17:26.415Z,55.17
2019-02-09T20:22:35.762Z,55.34
2019-02-09T20:27:46.950Z,55.31
2019-02-09T20:32:56.546Z,55.31
2019-02-09T20:38:13.120Z,55.50
2019-02-09T20:43:23.888Z,55.32
2019-02-09T20:48:40.484Z,55.20
2019-02-09T20:53:46.949Z,55.33
2019-02-09T20:58:59.916Z,55.52
2019-02-09T21:04:13.013Z,55.49
2019-02-09T21:09:25.984Z,55.17
2019-02-09T21:14:34.443Z,55.28
2019-02-09T21:19:41.620Z,55.30
2019-02-09T21:24:50.665Z,55.37
2019-02-09T21:29:57.097Z,56.03
2019-02-09T21:35:06.245Z,56.57
2019-02-09T21:40:21.007Z,56.73
2019-02-09T21:45:28.055Z,57.07
2019-02-09T21:50:35.998Z,57.23
2019-02-09T21:55:41.991Z,57.43
2019-02-09T22:00:48.135Z,57.58
2019-02-09T22:06:07.164Z,57.37
2019-02-09T22:11:13.022Z,57.96
2019-02-09T22:16:27.187Z,58.10
2019-02-09T22:21:36.594Z,58.50
2019-02-09T22:26:44.085Z,58.53
2019-02-09T22:31:53.471Z,58.78
2019-02-09T22:37:01.579Z,58.10
2019-02-09T22:42:14.899Z,57.87
2019-02-09T22:47:20.921Z,58.68
2019-02-09T22:52:30.286Z,58.80
2019-02-09T22:57:36.082Z,58.78
2019-02-09T23:02:42.109Z,58.61
2019-02-09T23:07:51.201Z,58.69
2019-02-09T23:12:59.766Z,59.12
2019-02-09T23:18:06.717Z,58.63
2019-02-09T23:23:14.677Z,58.63
2019-02-09T23:28:21.727Z,58.56
2019-02-09T23:33:32.649Z,59.56
2019-02-09T23:38:38.702Z,58.84
2019-02-09T23:43:44.383Z,59.13
2019-02-09T23:54:49.391Z,59.50
2019-02-09T23:59:55.124Z,59.32
